Time;durP1;ratioP1;P1;durP2;ratioP2;P2;SDS_P1;SDS_P2;PMS_P1;PMS_P2;Temp;Humidity;BMP_temperature;BMP_pressure;BME280_temperature;BME280_humidity;BME280_pressure;Samples;Min_cycle;Max_cycle;Signal;HPM_P1;HPM_P2
2021/10/23 00:00:05;;;;;;;1.55;0.60;;;21.40;52.50;;;;;;6295701;28;20020;-69
2021/10/23 00:03:06;;;;;;;1.00;0.40;;;21.40;52.50;;;;;;6295938;28;20093;-69
2021/10/23 00:06:07;;;;;;;0.95;0.38;;;21.40;52.50;;;;;;6295681;28;20494;-69
2021/10/23 00:09:07;;;;;;;0.88;0.40;;;21.40;52.50;;;;;;6289683;28;20029;-69
2021/10/23 00:12:08;;;;;;;0.57;0.38;;;21.40;52.40;;;;;;6270361;28;20406;-69
2021/10/23 00:15:08;;;;;;;0.50;0.40;;;21.40;52.50;;;;;;6270594;28;20029;-69
2021/10/23 00:18:09;;;;;;;1.20;0.50;;;21.40;52.50;;;;;;6285176;28;20397;-69
2021/10/23 00:21:09;;;;;;;0.82;0.40;;;21.40;52.50;;;;;;6294387;28;20094;-69
2021/10/23 00:24:10;;;;;;;1.20;0.38;;;21.40;52.50;;;;;;6295214;28;20469;-69
2021/10/23 00:27:10;;;;;;;0.32;0.30;;;21.40;52.50;;;;;;6294867;28;20083;-69
2021/10/23 00:30:11;;;;;;;0.57;0.40;;;21.40;52.50;;;;;;6295006;28;20024;-69
2021/10/23 00:33:12;;;;;;;0.75;0.40;;;21.40;52.50;;;;;;6271228;28;20108;-69
2021/10/23 00:36:13;;;;;;;0.50;0.50;;;21.40;52.50;;;;;;6276153;28;20465;-69
2021/10/23 00:39:14;;;;;;;0.65;0.40;;;21.40;52.50;;;;;;6295027;28;20103;-69
2021/10/23 00:42:15;;;;;;;0.70;0.40;;;21.40;52.60;;;;;;6281697;28;20024;-69
2021/10/23 00:45:15;;;;;;;1.10;0.43;;;21.40;52.50;;;;;;6270937;28;20024;-69
2021/10/23 00:48:16;;;;;;;0.70;0.40;;;21.40;52.50;;;;;;6273489;28;20112;-69
2021/10/23 00:51:17;;;;;;;0.30;0.30;;;21.40;52.50;;;;;;6294362;28;20433;-69
2021/10/23 00:54:18;;;;;;;0.63;0.30;;;21.40;52.60;;;;;;6294313;28;20032;-69
2021/10/23 00:57:19;;;;;;;0.88;0.40;;;21.40;52.50;;;;;;6294162;28;20393;-69
2021/10/23 01:00:20;;;;;;;1.00;0.50;;;21.40;52.50;;;;;;6294193;28;20028;-69
2021/10/23 01:03:21;;;;;;;1.60;0.63;;;21.40;52.60;;;;;;6274030;28;20036;-69
2021/10/23 01:06:22;;;;;;;0.77;0.38;;;21.40;52.50;;;;;;6269552;28;20029;-69
2021/10/23 01:09:23;;;;;;;2.95;0.40;;;21.40;52.50;;;;;;6269792;28;20039;-69
2021/10/23 01:12:24;;;;;;;1.88;0.47;;;21.40;52.50;;;;;;6269746;28;20056;-69
2021/10/23 01:15:29;;;;;;;1.08;0.60;;;21.40;52.50;;;;;;6269040;28;20021;-69
2021/10/23 01:18:29;;;;;;;1.13;0.55;;;21.40;52.40;;;;;;6286307;28;20107;-69
2021/10/23 01:21:30;;;;;;;1.20;0.50;;;21.40;52.60;;;;;;6293860;28;20016;-69
2021/10/23 01:24:30;;;;;;;0.88;0.68;;;21.40;52.50;;;;;;6294033;28;20020;-69
2021/10/23 01:27:31;;;;;;;0.50;0.35;;;21.40;52.50;;;;;;6251296;28;20022;-69
2021/10/23 01:30:32;;;;;;;0.40;0.30;;;21.40;52.50;;;;;;6246243;28;20498;-69
2021/10/23 01:33:33;;;;;;;0.90;0.50;;;21.40;52.60;;;;;;6293603;28;20409;-69
2021/10/23 01:36:34;;;;;;;0.68;0.40;;;21.40;52.50;;;;;;6293523;28;20021;-69
2021/10/23 01:39:35;;;;;;;0.82;0.43;;;21.40;52.60;;;;;;6293266;28;20020;-69
2021/10/23 01:42:35;;;;;;;0.60;0.40;;;21.40;52.50;;;;;;6293501;28;20016;-69
2021/10/23 01:45:36;;;;;;;1.17;0.60;;;21.40;52.60;;;;;;6293165;28;20032;-69
2021/10/23 01:48:37;;;;;;;0.80;0.35;;;21.40;52.60;;;;;;6270917;28;20389;-69
2021/10/23 01:51:38;;;;;;;0.55;0.32;;;21.40;52.60;;;;;;6268304;28;20385;-69
2021/10/23 01:54:39;;;;;;;0.52;0.30;;;21.40;52.50;;;;;;6268394;28;20113;-69
2021/10/23 01:57:40;;;;;;;1.17;0.38;;;21.40;52.60;;;;;;6267889;28;20032;-69
2021/10/23 02:00:40;;;;;;;0.60;0.43;;;21.40;52.60;;;;;;6267098;28;20029;-69
2021/10/23 02:03:41;;;;;;;0.68;0.40;;;21.40;52.60;;;;;;6290678;28;20383;-69
2021/10/23 02:06:41;;;;;;;1.00;0.40;;;21.40;52.60;;;;;;6292865;28;20028;-69
2021/10/23 02:09:42;;;;;;;0.70;0.40;;;21.40;52.50;;;;;;6272971;28;20075;-69
2021/10/23 02:12:42;;;;;;;0.88;0.60;;;21.40;52.60;;;;;;6277849;28;20067;-69
2021/10/23 02:15:43;;;;;;;0.70;0.30;;;21.40;52.60;;;;;;6292365;28;20039;-69
2021/10/23 02:18:44;;;;;;;1.05;0.40;;;21.40;52.60;;;;;;6281726;28;20449;-69
2021/10/23 02:21:44;;;;;;;0.55;0.38;;;21.40;52.60;;;;;;6291189;28;20024;-69
2021/10/23 02:24:45;;;;;;;0.90;0.30;;;21.40;52.60;;;;;;6292664;28;20096;-69
2021/10/23 02:27:45;;;;;;;0.68;0.50;;;21.40;52.60;;;;;;6272429;28;20370;-69
2021/10/23 02:30:46;;;;;;;1.65;0.43;;;21.40;52.60;;;;;;6270639;28;20381;-69
2021/10/23 02:33:46;;;;;;;1.45;0.52;;;21.40;52.60;;;;;;6292769;28;20035;-69
2021/10/23 02:36:47;;;;;;;2.00;0.45;;;21.40;52.60;;;;;;6293022;28;20036;-69
2021/10/23 02:39:47;;;;;;;1.38;0.45;;;21.40;52.60;;;;;;6292236;28;20035;-69
2021/10/23 02:42:48;;;;;;;1.58;0.75;;;21.40;52.60;;;;;;6292005;28;20020;-69
2021/10/23 02:45:49;;;;;;;1.27;0.40;;;21.40;52.60;;;;;;6292332;28;20064;-69
2021/10/23 02:48:49;;;;;;;0.70;0.43;;;21.40;52.60;;;;;;6266962;28;20025;-69
2021/10/23 02:51:50;;;;;;;1.98;0.60;;;21.40;52.60;;;;;;6267172;28;20187;-69
2021/10/23 02:54:51;;;;;;;1.70;0.50;;;21.40;52.60;;;;;;6267683;28;20091;-69
2021/10/23 02:57:51;;;;;;;1.15;0.47;;;21.40;52.60;;;;;;6282555;28;20024;-69
2021/10/23 03:00:52;;;;;;;0.30;0.30;;;21.40;52.60;;;;;;6292478;28;20025;-69
2021/10/23 03:03:53;;;;;;;1.35;0.55;;;21.40;52.60;;;;;;6290885;28;20028;-69
2021/10/23 03:06:53;;;;;;;0.52;0.30;;;21.40;52.60;;;;;;6292368;28;20024;-69
2021/10/23 03:09:54;;;;;;;3.92;0.60;;;21.40;52.60;;;;;;6292198;28;20079;-69
2021/10/23 03:12:54;;;;;;;0.70;0.50;;;21.40;52.60;;;;;;6292285;28;20048;-69
2021/10/23 03:15:56;;;;;;;0.32;0.32;;;21.40;52.60;;;;;;6290581;28;20060;-69
2021/10/23 03:18:57;;;;;;;2.35;0.57;;;21.40;52.70;;;;;;6291010;28;20466;-69
2021/10/23 03:21:57;;;;;;;0.50;0.40;;;21.40;52.60;;;;;;6287023;28;20025;-69
2021/10/23 03:24:58;;;;;;;1.48;0.38;;;21.40;52.60;;;;;;6270456;28;20060;-69
2021/10/23 03:27:58;;;;;;;0.77;0.40;;;21.40;52.60;;;;;;6270057;28;20032;-69
2021/10/23 03:30:59;;;;;;;0.88;0.50;;;21.40;52.60;;;;;;6270161;28;20055;-69
2021/10/23 03:34:00;;;;;;;1.10;0.35;;;21.40;52.60;;;;;;6292045;28;20031;-69
2021/10/23 03:37:00;;;;;;;0.98;0.50;;;21.40;52.60;;;;;;6290680;28;20074;-69
2021/10/23 03:40:04;;;;;;;1.05;0.40;;;21.40;52.60;;;;;;6290702;28;20378;-69
2021/10/23 03:43:04;;;;;;;0.77;0.50;;;21.40;52.60;;;;;;6291219;28;20495;-69
2021/10/23 03:46:05;;;;;;;0.82;0.40;;;21.40;52.60;;;;;;6288694;28;20021;-69
2021/10/23 03:49:06;;;;;;;1.70;0.55;;;21.30;52.60;;;;;;6266986;28;20041;-69
2021/10/23 03:52:06;;;;;;;0.95;0.52;;;21.40;52.70;;;;;;6264755;28;20032;-69
2021/10/23 03:55:09;;;;;;;1.88;0.60;;;21.40;52.70;;;;;;6269816;28;20021;-69
2021/10/23 03:58:10;;;;;;;0.77;0.47;;;21.30;52.60;;;;;;6289240;28;20020;-69
2021/10/23 04:01:10;;;;;;;0.80;0.40;;;21.40;52.60;;;;;;6295808;28;20016;-69
2021/10/23 04:04:11;;;;;;;1.00;0.52;;;21.40;52.60;;;;;;6295943;28;20028;-69
2021/10/23 04:07:12;;;;;;;0.55;0.30;;;21.40;52.60;;;;;;6295754;28;20031;-69
2021/10/23 04:10:13;;;;;;;1.55;0.60;;;21.40;52.60;;;;;;6295977;28;20119;-69
2021/10/23 04:13:13;;;;;;;0.65;0.30;;;21.40;52.70;;;;;;6295700;28;20024;-69
2021/10/23 04:16:14;;;;;;;1.73;0.32;;;21.40;52.70;;;;;;6295713;28;20063;-69
2021/10/23 04:19:14;;;;;;;1.02;0.52;;;21.40;52.70;;;;;;6271547;28;20075;-69
2021/10/23 04:22:15;;;;;;;0.68;0.30;;;21.40;52.70;;;;;;6275198;28;20066;-69
2021/10/23 04:25:15;;;;;;;1.40;0.40;;;21.40;52.60;;;;;;6289610;28;20044;-69
2021/10/23 04:28:16;;;;;;;1.45;0.40;;;21.40;52.60;;;;;;6294692;28;20031;-69
2021/10/23 04:31:16;;;;;;;0.88;0.40;;;21.40;52.70;;;;;;6293921;28;20107;-69
2021/10/23 04:34:17;;;;;;;0.85;0.50;;;21.30;52.60;;;;;;6295378;28;20036;-69
2021/10/23 04:37:17;;;;;;;1.15;0.40;;;21.40;52.60;;;;;;6294974;28;20418;-69
2021/10/23 04:40:19;;;;;;;0.90;0.40;;;21.40;52.60;;;;;;6295364;28;20374;-69
2021/10/23 04:43:19;;;;;;;1.25;0.45;;;21.40;52.60;;;;;;6294531;28;20059;-69
2021/10/23 04:46:20;;;;;;;1.35;0.50;;;21.40;52.70;;;;;;6284775;28;20018;-69
2021/10/23 04:49:21;;;;;;;1.55;0.45;;;21.40;52.70;;;;;;6245595;28;20503;-69
2021/10/23 04:52:21;;;;;;;1.00;0.47;;;21.40;52.70;;;;;;6271584;28;20028;-69
2021/10/23 04:55:22;;;;;;;0.55;0.30;;;21.40;52.60;;;;;;6294422;28;20173;-69
2021/10/23 04:58:23;;;;;;;1.50;0.45;;;21.40;52.60;;;;;;6294571;28;20286;-69
2021/10/23 05:01:23;;;;;;;1.10;0.38;;;21.40;52.70;;;;;;6292291;28;20036;-69
2021/10/23 05:04:24;;;;;;;3.38;0.50;;;21.30;52.60;;;;;;6295100;28;20017;-69
2021/10/23 05:07:24;;;;;;;1.10;0.40;;;21.40;52.70;;;;;;6293495;28;20296;-69
2021/10/23 05:10:25;;;;;;;1.23;0.40;;;21.40;52.70;;;;;;6293094;28;20067;-69
2021/10/23 05:13:26;;;;;;;0.77;0.40;;;21.40;52.60;;;;;;6275838;28;20079;-70
2021/10/23 05:16:26;;;;;;;1.35;0.47;;;21.30;52.50;;;;;;6269468;28;20032;-69
2021/10/23 05:19:27;;;;;;;1.95;0.75;;;21.40;52.60;;;;;;6292353;28;20103;-69
2021/10/23 05:22:27;;;;;;;1.08;0.50;;;21.40;52.60;;;;;;6286573;28;20024;-69
2021/10/23 05:25:29;;;;;;;0.80;0.30;;;21.30;52.60;;;;;;6276536;28;20123;-69
2021/10/23 05:28:30;;;;;;;1.20;0.40;;;21.30;52.60;;;;;;6293941;28;20097;-69
2021/10/23 05:31:30;;;;;;;0.77;0.40;;;21.30;52.60;;;;;;6292454;28;20027;-69
2021/10/23 05:34:31;;;;;;;1.95;0.57;;;21.30;52.60;;;;;;6294052;28;20085;-69
2021/10/23 05:37:31;;;;;;;0.90;0.40;;;21.30;52.50;;;;;;6283407;28;20380;-69
2021/10/23 05:40:32;;;;;;;0.88;0.43;;;21.40;52.60;;;;;;6267647;28;20020;-69
2021/10/23 05:43:32;;;;;;;0.80;0.40;;;21.30;52.60;;;;;;6292801;28;20059;-69
2021/10/23 05:46:33;;;;;;;0.73;0.40;;;21.30;52.70;;;;;;6285085;28;20019;-69
2021/10/23 05:49:34;;;;;;;0.77;0.40;;;21.30;52.60;;;;;;6268328;28;20094;-69
2021/10/23 05:52:35;;;;;;;0.57;0.35;;;21.40;52.60;;;;;;6283198;28;20449;-69
2021/10/23 05:55:35;;;;;;;0.88;0.40;;;21.30;52.50;;;;;;6292841;28;20099;-69
2021/10/23 05:58:36;;;;;;;1.38;0.60;;;21.30;52.60;;;;;;6293302;28;20039;-69
2021/10/23 06:01:39;;;;;;;0.50;0.35;;;21.30;52.70;;;;;;6291709;28;20017;-69
2021/10/23 06:04:39;;;;;;;0.70;0.40;;;21.40;52.70;;;;;;6293197;28;20039;-69
2021/10/23 06:07:42;;;;;;;1.63;0.70;;;21.30;52.70;;;;;;6291359;28;20650;-69
2021/10/23 06:10:43;;;;;;;0.68;0.38;;;21.40;52.70;;;;;;6292839;28;20040;-69
2021/10/23 06:13:43;;;;;;;0.95;0.40;;;21.30;52.70;;;;;;6292775;28;20032;-69
2021/10/23 06:16:44;;;;;;;1.02;0.43;;;21.30;52.60;;;;;;6287891;28;20032;-69
2021/10/23 06:19:44;;;;;;;0.95;0.40;;;21.30;52.60;;;;;;6266292;28;20056;-69
2021/10/23 06:22:50;;;;;;;0.80;0.40;;;21.30;52.60;;;;;;6279856;28;20103;-69
2021/10/23 06:25:50;;;;;;;1.73;0.40;;;21.40;52.70;;;;;;6293013;28;20332;-69
2021/10/23 06:28:51;;;;;;;1.00;0.47;;;21.40;52.70;;;;;;6292850;28;20470;-69
2021/10/23 06:31:51;;;;;;;0.50;0.30;;;21.30;52.60;;;;;;6291166;28;20040;-69
2021/10/23 06:34:52;;;;;;;1.20;0.60;;;21.30;52.70;;;;;;6292405;28;20059;-69
2021/10/23 06:37:53;;;;;;;0.50;0.28;;;21.30;53.40;;;;;;6292973;28;20559;-69
2021/10/23 06:40:53;;;;;;;0.90;0.43;;;21.30;52.70;;;;;;6291887;28;20056;-69
2021/10/23 06:43:54;;;;;;;0.28;0.20;;;21.30;52.60;;;;;;6292531;28;20065;-69
2021/10/23 06:46:54;;;;;;;1.08;0.50;;;21.30;52.60;;;;;;6284093;28;20021;-69
2021/10/23 06:49:55;;;;;;;0.70;0.50;;;21.30;52.70;;;;;;6264477;28;20017;-69
2021/10/23 06:52:56;;;;;;;0.88;0.40;;;21.40;52.60;;;;;;6265204;28;20124;-69
2021/10/23 06:55:57;;;;;;;0.73;0.43;;;21.30;52.70;;;;;;6267330;28;20111;-68
2021/10/23 06:58:57;;;;;;;1.70;0.50;;;21.30;52.60;;;;;;6267266;28;20029;-69
2021/10/23 07:01:58;;;;;;;3.05;0.47;;;21.40;52.60;;;;;;6267103;28;20036;-69
2021/10/23 07:04:58;;;;;;;0.85;0.30;;;21.30;52.60;;;;;;6278543;28;20576;-69
2021/10/23 07:07:59;;;;;;;0.73;0.40;;;21.30;52.70;;;;;;6277590;28;20053;-69
2021/10/23 07:11:00;;;;;;;0.85;0.40;;;21.30;52.70;;;;;;6266347;28;20052;-69
2021/10/23 07:14:00;;;;;;;1.23;0.35;;;21.30;52.70;;;;;;6265656;28;20486;-69
2021/10/23 07:17:01;;;;;;;1.40;0.45;;;21.30;52.70;;;;;;6266259;28;20114;-69
2021/10/23 07:20:03;;;;;;;0.95;0.40;;;21.30;52.70;;;;;;6265298;28;20454;-69
2021/10/23 07:23:04;;;;;;;1.73;0.60;;;21.40;52.70;;;;;;6266951;28;20063;-69
2021/10/23 07:26:04;;;;;;;1.45;0.55;;;21.40;52.70;;;;;;6266999;28;20021;-69
2021/10/23 07:29:05;;;;;;;1.13;0.50;;;21.40;52.70;;;;;;6266346;28;20055;-69
2021/10/23 07:32:06;;;;;;;1.90;0.35;;;21.30;52.60;;;;;;6271422;28;20071;-69
2021/10/23 07:35:08;;;;;;;2.50;0.65;;;21.30;53.40;;;;;;6270087;28;20025;-69
2021/10/23 07:38:09;;;;;;;1.30;0.50;;;21.30;52.70;;;;;;6287605;28;20029;-69
2021/10/23 07:41:10;;;;;;;1.08;0.38;;;21.30;52.70;;;;;;6279763;28;20074;-68
2021/10/23 07:44:11;;;;;;;0.77;0.43;;;21.30;52.70;;;;;;6271391;28;20025;-69
2021/10/23 07:47:11;;;;;;;1.58;0.60;;;21.30;52.70;;;;;;6271223;28;20474;-68
2021/10/23 07:50:13;;;;;;;1.73;0.68;;;21.30;52.80;;;;;;6270015;28;20497;-68
2021/10/23 07:53:14;;;;;;;1.13;0.30;;;21.40;52.80;;;;;;6275073;28;20066;-68
2021/10/23 07:56:14;;;;;;;1.42;0.50;;;21.40;52.80;;;;;;6294640;28;20028;-68
2021/10/23 07:59:15;;;;;;;1.23;0.40;;;21.40;52.80;;;;;;6265361;28;20104;-68
2021/10/23 08:02:16;;;;;;;1.00;0.60;;;21.40;52.80;;;;;;6246294;28;20021;-68
2021/10/23 08:05:16;;;;;;;1.90;0.73;;;21.40;52.80;;;;;;6266971;28;20112;-68
2021/10/23 08:08:17;;;;;;;1.08;0.40;;;21.40;52.80;;;;;;6264964;28;20108;-69
2021/10/23 08:11:17;;;;;;;1.25;0.50;;;21.30;52.70;;;;;;6245633;28;20079;-68
2021/10/23 08:14:19;;;;;;;0.73;0.50;;;21.40;52.80;;;;;;6270668;28;20029;-69
2021/10/23 08:17:19;;;;;;;1.00;0.50;;;21.30;52.70;;;;;;6269978;28;20082;-69
2021/10/23 08:20:20;;;;;;;1.73;0.55;;;21.30;52.70;;;;;;6270195;28;20071;-69
2021/10/23 08:23:25;;;;;;;0.80;0.40;;;21.40;52.80;;;;;;6268803;28;20071;-69
2021/10/23 08:26:26;;;;;;;1.65;0.70;;;21.40;52.80;;;;;;6270471;28;20332;-68
2021/10/23 08:29:26;;;;;;;1.58;0.50;;;21.30;52.70;;;;;;6270011;28;20033;-69
2021/10/23 08:32:27;;;;;;;1.38;0.60;;;21.40;52.80;;;;;;6268409;28;20093;-68
2021/10/23 08:35:28;;;;;;;3.75;0.65;;;21.40;52.80;;;;;;6270082;28;20036;-69
2021/10/23 08:38:29;;;;;;;1.52;0.50;;;21.40;52.80;;;;;;6269250;28;20021;-69
2021/10/23 08:41:30;;;;;;;2.15;0.50;;;21.40;52.80;;;;;;6269047;28;20017;-68
2021/10/23 08:44:32;;;;;;;1.30;0.65;;;21.40;52.70;;;;;;6267443;28;20078;-68
2021/10/23 08:47:36;;;;;;;4.50;0.65;;;21.40;52.70;;;;;;6269341;28;20104;-68
2021/10/23 08:50:38;;;;;;;1.87;0.80;;;21.40;52.80;;;;;;6269700;28;20045;-68
2021/10/23 08:53:40;;;;;;;2.67;0.63;;;21.40;52.80;;;;;;6272821;28;20378;-68
2021/10/23 08:56:42;;;;;;;6.97;0.63;;;21.40;52.80;;;;;;6269750;28;20021;-68
2021/10/23 08:59:44;;;;;;;1.02;0.43;;;21.40;52.80;;;;;;6269458;28;20691;-68
2021/10/23 09:02:45;;;;;;;1.52;0.63;;;21.40;52.70;;;;;;6256985;28;20025;-68
2021/10/23 09:05:45;;;;;;;1.15;0.57;;;21.40;52.70;;;;;;6269515;28;20359;-68
2021/10/23 09:09:04;;;;;;;1.50;0.60;;;21.40;52.70;;;;;;6268721;28;20098;-68
2021/10/23 09:12:35;;;;;;;1.75;0.50;;;21.40;52.70;;;;;;6269046;28;20071;-68
2021/10/23 09:15:41;;;;;;;3.03;0.90;;;21.40;52.80;;;;;;6268677;28;20111;-68
2021/10/23 09:18:45;;;;;;;2.38;0.50;;;21.40;52.70;;;;;;6268885;28;20036;-69
2021/10/23 09:21:46;;;;;;;1.58;0.60;;;21.40;52.80;;;;;;6267611;28;20124;-68
2021/10/23 09:24:46;;;;;;;1.45;0.68;;;21.40;52.70;;;;;;6290409;28;20033;-68
2021/10/23 09:27:49;;;;;;;1.13;0.40;;;21.40;52.70;;;;;;6272743;28;20035;-69
2021/10/23 09:30:50;;;;;;;2.40;0.50;;;21.40;52.70;;;;;;6271406;28;20047;-69
2021/10/23 09:33:59;;;;;;;0.90;0.65;;;21.40;52.80;;;;;;6269881;28;20021;-68
2021/10/23 09:37:02;;;;;;;1.77;0.70;;;21.40;52.80;;;;;;6278544;28;20070;-69
2021/10/23 09:40:07;;;;;;;3.42;0.70;;;21.40;52.70;;;;;;6280620;28;20029;-68
2021/10/23 09:43:16;;;;;;;4.28;0.70;;;21.40;52.70;;;;;;6288881;28;20425;-68
2021/10/23 09:46:21;;;;;;;1.00;0.50;;;21.40;52.70;;;;;;6270951;28;20071;-68
2021/10/23 09:49:22;;;;;;;;;;;21.40;52.70;;;;;;6268056;28;20090;-68
2021/10/23 09:52:24;;;;;;;2.55;0.60;;;21.40;52.70;;;;;;6267935;28;19911;-68
2021/10/23 09:55:30;;;;;;;1.23;0.40;;;21.40;52.70;;;;;;6268206;28;20051;-68
2021/10/23 09:58:30;;;;;;;3.22;0.52;;;21.40;52.80;;;;;;6275862;28;20028;-68
2021/10/23 10:01:33;;;;;;;0.75;0.60;;;21.40;52.80;;;;;;6288002;28;20028;-68
2021/10/23 10:04:35;;;;;;;1.33;0.70;;;21.40;52.80;;;;;;6267853;28;20103;-68
2021/10/23 10:07:37;;;;;;;2.53;0.57;;;21.40;52.80;;;;;;6267513;28;20033;-68
2021/10/23 10:10:46;;;;;;;1.23;0.70;;;21.40;52.80;;;;;;6271716;28;20111;-68
2021/10/23 10:13:53;;;;;;;1.20;0.57;;;21.40;52.80;;;;;;6276940;28;20390;-67
2021/10/23 10:16:58;;;;;;;1.33;0.60;;;21.40;52.80;;;;;;6292009;28;20527;-67
2021/10/23 10:20:01;;;;;;;1.85;0.70;;;21.40;52.80;;;;;;6292860;28;20086;-67
2021/10/23 10:23:05;;;;;;;2.85;0.80;;;21.40;52.80;;;;;;6277761;28;20021;-67
2021/10/23 10:26:24;;;;;;;3.03;0.68;;;21.40;52.90;;;;;;6266393;28;20116;-67
2021/10/23 10:32:47;;;;;;;2.60;0.70;;;21.40;52.90;;;;;;6267106;28;20040;-67
2021/10/23 10:36:29;;;;;;;1.52;0.60;;;21.40;52.80;;;;;;6267452;28;20033;-67
2021/10/23 10:39:50;;;;;;;1.52;0.68;;;21.40;52.80;;;;;;6267147;28;20025;-67
2021/10/23 10:42:56;;;;;;;1.95;0.60;;;21.40;52.70;;;;;;6267580;28;20367;-68
2021/10/23 10:45:57;;;;;;;2.10;0.68;;;21.40;52.70;;;;;;6267163;28;20104;-67
2021/10/23 10:48:58;;;;;;;1.83;0.60;;;21.40;52.70;;;;;;6266956;28;20025;-67
2021/10/23 10:51:58;;;;;;;1.55;0.77;;;21.40;52.70;;;;;;6267204;28;20029;-68
2021/10/23 10:55:16;;;;;;;1.95;0.60;;;21.40;52.70;;;;;;6265881;28;20032;-67
2021/10/23 10:58:41;;;;;;;2.38;0.70;;;21.40;52.70;;;;;;6268186;28;20059;-67
2021/10/23 11:02:06;;;;;;;1.77;0.60;;;21.40;52.70;;;;;;6291986;28;20056;-67
2021/10/23 11:05:12;;;;;;;2.47;0.80;;;21.40;52.70;;;;;;6273648;28;20025;-67
2021/10/23 11:08:15;;;;;;;3.95;0.70;;;21.50;52.70;;;;;;6272024;28;20104;-68
2021/10/23 11:11:16;;;;;;;1.55;0.60;;;21.50;52.80;;;;;;6271954;28;20136;-68
2021/10/23 11:14:28;;;;;;;2.50;0.80;;;21.50;52.90;;;;;;6273967;28;20082;-68
2021/10/23 11:17:29;;;;;;;2.80;1.10;;;21.50;52.90;;;;;;6274181;28;20111;-68
2021/10/23 11:20:30;;;;;;;2.17;0.93;;;21.50;52.90;;;;;;6273752;28;20021;-68
2021/10/23 11:23:30;;;;;;;4.82;0.80;;;21.50;52.80;;;;;;6273077;28;20527;-68
2021/10/23 11:26:31;;;;;;;2.00;0.70;;;21.50;52.80;;;;;;6273879;28;20022;-68
2021/10/23 11:29:32;;;;;;;4.38;1.00;;;21.50;52.70;;;;;;6273598;28;20075;-68
2021/10/23 11:32:34;;;;;;;1.80;0.70;;;21.50;52.70;;;;;;6273792;28;20056;-68
2021/10/23 11:35:36;;;;;;;0.82;0.50;;;21.50;52.60;;;;;;6273738;28;20025;-68
2021/10/23 11:38:37;;;;;;;2.78;0.98;;;21.50;52.60;;;;;;6273231;28;20497;-68
2021/10/23 11:41:37;;;;;;;1.45;0.60;;;21.50;52.60;;;;;;6273494;28;20058;-68
2021/10/23 11:44:38;;;;;;;1.48;0.60;;;21.50;52.60;;;;;;6273003;28;20067;-68
2021/10/23 11:47:39;;;;;;;1.73;0.88;;;21.50;52.60;;;;;;6273480;28;20550;-68
2021/10/23 11:50:44;;;;;;;1.08;0.60;;;21.50;52.60;;;;;;6271594;28;20025;-68
2021/10/23 11:53:45;;;;;;;2.13;0.70;;;21.50;52.60;;;;;;6271619;28;20053;-68
2021/10/23 11:56:49;;;;;;;1.33;0.55;;;21.50;53.30;;;;;;6273010;28;20040;-67
2021/10/23 11:59:50;;;;;;;2.63;1.13;;;21.50;52.60;;;;;;6272810;28;20037;-68
2021/10/23 12:02:59;;;;;;;1.38;0.50;;;21.60;52.60;;;;;;6272890;28;20071;-68
2021/10/23 12:06:27;;;;;;;1.48;0.57;;;21.50;52.50;;;;;;6273052;28;20402;-68
2021/10/23 12:09:28;;;;;;;3.40;0.85;;;21.50;52.50;;;;;;6272494;28;20025;-68
2021/10/23 12:12:29;;;;;;;3.03;0.80;;;21.50;52.60;;;;;;6272551;28;20053;-68
2021/10/23 12:15:31;;;;;;;0.95;0.60;;;21.60;52.60;;;;;;6272696;28;20391;-68
2021/10/23 12:18:34;;;;;;;2.53;0.80;;;21.50;52.60;;;;;;6272442;28;20689;-68
2021/10/23 12:21:42;;;;;;;1.67;0.80;;;21.50;52.60;;;;;;6272379;28;20052;-68
2021/10/23 12:24:45;;;;;;;1.23;0.63;;;21.50;52.60;;;;;;6272286;28;20340;-68
2021/10/23 12:27:58;;;;;;;1.60;0.73;;;21.50;52.60;;;;;;6272393;28;20029;-68
2021/10/23 12:30:58;;;;;;;1.90;0.80;;;21.50;52.70;;;;;;6272140;28;20021;-68
2021/10/23 12:34:05;;;;;;;1.83;0.60;;;21.50;52.70;;;;;;6272051;28;20064;-68
2021/10/23 12:37:06;;;;;;;1.58;0.60;;;21.50;52.70;;;;;;6272297;28;20371;-68
2021/10/23 12:40:24;;;;;;;1.27;0.60;;;21.50;52.70;;;;;;6270649;28;20449;-68
2021/10/23 12:43:25;;;;;;;1.20;0.52;;;21.50;52.60;;;;;;6292853;28;20028;-68
2021/10/23 12:46:26;;;;;;;1.15;0.57;;;21.50;52.70;;;;;;6291056;28;20051;-68
2021/10/23 12:49:28;;;;;;;3.28;0.70;;;21.50;52.60;;;;;;6272022;28;20025;-68
2021/10/23 12:52:30;;;;;;;1.88;0.73;;;21.50;52.60;;;;;;6271855;28;20036;-68
2021/10/23 12:55:31;;;;;;;2.38;0.90;;;21.50;52.60;;;;;;6271559;28;20360;-68
2021/10/23 12:58:32;;;;;;;0.75;0.55;;;21.50;52.60;;;;;;6271777;28;20029;-68
2021/10/23 13:01:32;;;;;;;2.80;0.68;;;21.50;52.60;;;;;;6271659;28;20029;-68
2021/10/23 13:04:33;;;;;;;1.40;0.68;;;21.50;52.60;;;;;;6271660;28;20100;-68
2021/10/23 13:07:33;;;;;;;2.95;0.80;;;21.50;52.60;;;;;;6271581;28;20025;-68
2021/10/23 13:10:34;;;;;;;1.98;0.70;;;21.50;52.70;;;;;;6271214;28;20465;-68
2021/10/23 13:13:40;;;;;;;1.52;0.75;;;21.50;52.90;;;;;;6271248;28;20029;-68
2021/10/23 13:16:40;;;;;;;1.67;0.80;;;21.50;52.60;;;;;;6271361;28;20029;-68
2021/10/23 13:19:41;;;;;;;2.92;0.77;;;21.50;52.60;;;;;;6271136;28;20071;-68
2021/10/23 13:22:45;;;;;;;1.80;0.60;;;21.50;52.60;;;;;;6269770;28;20025;-68
2021/10/23 13:25:46;;;;;;;1.48;0.68;;;21.50;52.60;;;;;;6274186;28;20028;-68
2021/10/23 13:28:46;;;;;;;1.02;0.55;;;21.50;52.60;;;;;;6294424;28;20175;-68
2021/10/23 13:31:47;;;;;;;1.75;0.52;;;21.50;52.60;;;;;;6295283;28;20093;-68
2021/10/23 13:34:49;;;;;;;2.67;0.80;;;21.50;52.60;;;;;;6295801;28;20079;-68
2021/10/23 13:37:50;;;;;;;1.75;0.73;;;21.50;52.60;;;;;;6286875;28;20081;-68
2021/10/23 13:40:53;;;;;;;2.45;0.70;;;21.50;52.60;;;;;;6295412;28;20016;-68
2021/10/23 13:43:54;;;;;;;1.75;0.80;;;21.50;52.60;;;;;;6295321;28;20482;-68
2021/10/23 13:46:54;;;;;;;2.08;0.60;;;21.50;52.60;;;;;;6295571;28;20027;-68
2021/10/23 13:49:55;;;;;;;0.57;0.50;;;21.50;52.60;;;;;;6295945;28;20416;-68
2021/10/23 13:52:57;;;;;;;2.35;0.50;;;21.50;52.70;;;;;;6295316;28;20490;-68
2021/10/23 13:55:58;;;;;;;2.15;0.80;;;21.50;52.70;;;;;;6295057;28;20031;-68
2021/10/23 13:58:59;;;;;;;1.38;0.52;;;21.50;52.70;;;;;;6295247;28;20024;-68
2021/10/23 14:02:00;;;;;;;1.83;0.60;;;21.50;52.70;;;;;;6295665;28;20043;-69
2021/10/23 14:05:01;;;;;;;3.70;0.98;;;21.50;52.70;;;;;;6294733;28;20061;-68
2021/10/23 14:08:02;;;;;;;1.50;0.60;;;21.50;52.70;;;;;;6294938;28;20501;-68
2021/10/23 14:11:03;;;;;;;1.20;0.50;;;21.50;52.70;;;;;;6294494;28;20510;-68
2021/10/23 14:14:04;;;;;;;1.42;0.60;;;21.50;52.70;;;;;;6271049;28;20017;-68
2021/10/23 14:17:04;;;;;;;1.70;0.60;;;21.50;52.70;;;;;;6270048;28;20055;-68
2021/10/23 14:20:06;;;;;;;1.90;0.70;;;21.50;52.70;;;;;;6269832;28;20445;-68
2021/10/23 14:23:12;;;;;;;1.13;0.50;;;21.50;52.70;;;;;;6269813;28;20025;-68
2021/10/23 14:26:14;;;;;;;1.73;0.70;;;21.50;53.40;;;;;;6269666;28;20025;-68
2021/10/23 14:29:15;;;;;;;1.15;0.55;;;21.50;52.70;;;;;;6269731;28;20100;-68
2021/10/23 14:32:15;;;;;;;1.60;0.80;;;21.50;52.70;;;;;;6269444;28;20390;-68
2021/10/23 14:35:16;;;;;;;1.05;0.40;;;21.50;52.70;;;;;;6269398;28;20025;-68
2021/10/23 14:38:17;;;;;;;1.85;0.70;;;21.50;52.70;;;;;;6268628;28;20061;-68
2021/10/23 14:41:17;;;;;;;0.82;0.70;;;21.40;52.60;;;;;;6269803;28;20033;-68
2021/10/23 14:44:18;;;;;;;2.10;0.82;;;21.50;52.70;;;;;;6269510;28;20036;-68
2021/10/23 14:47:19;;;;;;;1.73;0.50;;;21.50;52.70;;;;;;6269635;28;20028;-68
2021/10/23 14:50:19;;;;;;;0.73;0.50;;;21.50;52.70;;;;;;6268123;28;20075;-68
2021/10/23 14:53:20;;;;;;;1.60;0.60;;;21.50;52.80;;;;;;6267923;28;20056;-68
2021/10/23 14:56:20;;;;;;;1.25;0.60;;;21.50;52.70;;;;;;6269380;28;20033;-68
2021/10/23 14:59:21;;;;;;;0.52;0.40;;;21.50;52.80;;;;;;6268965;28;20060;-68
2021/10/23 15:02:22;;;;;;;1.42;0.55;;;21.50;52.80;;;;;;6268090;28;20020;-68
2021/10/23 15:05:22;;;;;;;0.95;0.57;;;21.50;52.80;;;;;;6267832;28;20029;-68
2021/10/23 15:08:23;;;;;;;1.58;0.50;;;21.40;52.70;;;;;;6269115;28;20032;-69
2021/10/23 15:11:24;;;;;;;1.95;0.57;;;21.50;52.80;;;;;;6268870;28;20052;-68
2021/10/23 15:14:24;;;;;;;1.70;0.50;;;21.50;52.80;;;;;;6269396;28;20032;-68
2021/10/23 15:17:25;;;;;;;1.10;0.60;;;21.50;52.80;;;;;;6268814;28;20090;-68
2021/10/23 15:20:26;;;;;;;1.20;0.45;;;21.40;52.70;;;;;;6269520;28;20041;-68
2021/10/23 15:23:26;;;;;;;1.38;0.47;;;21.40;52.70;;;;;;6269214;28;20078;-68
2021/10/23 15:26:27;;;;;;;1.02;0.65;;;21.50;52.80;;;;;;6277906;28;20492;-68
2021/10/23 15:29:27;;;;;;;0.63;0.50;;;21.50;52.80;;;;;;6293940;28;20042;-68
2021/10/23 15:32:28;;;;;;;1.20;0.55;;;21.50;52.90;;;;;;6276913;28;20505;-68
2021/10/23 15:35:31;;;;;;;0.60;0.50;;;21.50;52.90;;;;;;6269208;28;20567;-68
2021/10/23 15:38:34;;;;;;;1.00;0.50;;;21.40;52.80;;;;;;6268672;28;20017;-68
2021/10/23 15:41:49;;;;;;;1.42;0.50;;;21.50;53.00;;;;;;6268775;28;20021;-68
2021/10/23 15:44:49;;;;;;;1.05;0.40;;;21.50;52.90;;;;;;6268824;28;20013;-68
2021/10/23 15:47:50;;;;;;;0.93;0.38;;;21.50;52.90;;;;;;6267434;28;20556;-68
2021/10/23 15:50:51;;;;;;;1.40;0.68;;;21.50;53.00;;;;;;6271317;28;20024;-68